Time;durP1;ratioP1;P1;durP2;ratioP2;P2;SDS_P1;SDS_P2;PMS_P1;PMS_P2;Temp;Humidity;BMP_temperature;BMP_pressure;BME280_temperature;BME280_humidity;BME280_pressure;Samples;Min_cycle;Max_cycle;Signal;HPM_P1;HPM_P2
2021/03/27 00:01:43;;;;;;;4.13;3.30;;;7.90;92.00;;;;;;5032949;28;20033;-65
2021/03/27 00:04:26;;;;;;;5.45;4.95;;;7.80;91.90;;;;;;5026978;28;20088;-66
2021/03/27 00:06:54;;;;;;;4.50;3.53;;;7.80;92.00;;;;;;5032634;28;20033;-67
2021/03/27 00:09:38;;;;;;;4.97;3.67;;;7.70;92.00;;;;;;5032748;28;20068;-66
2021/03/27 00:12:30;;;;;;;3.88;3.45;;;7.70;92.20;;;;;;5031800;28;20389;-65
2021/03/27 00:15:10;;;;;;;5.55;5.00;;;7.70;92.20;;;;;;5032039;28;20061;-66
2021/03/27 00:17:40;;;;;;;11.30;8.30;;;7.70;92.10;;;;;;5032790;28;20024;-65
2021/03/27 00:20:17;;;;;;;3.72;3.38;;;7.70;92.10;;;;;;5031746;28;20506;-66
2021/03/27 00:22:46;;;;;;;3.40;2.75;;;7.60;92.10;;;;;;5032705;28;20108;-66
2021/03/27 00:25:29;;;;;;;3.70;2.70;;;7.60;92.10;;;;;;5032765;28;20033;-65
2021/03/27 00:28:06;;;;;;;7.47;4.15;;;7.60;92.20;;;;;;5032327;28;20028;-65
2021/03/27 00:30:38;;;;;;;2.67;1.88;;;7.50;92.20;;;;;;5032682;28;20017;-65
2021/03/27 00:33:04;;;;;;;6.00;5.00;;;7.50;92.20;;;;;;5031532;28;20330;-65
2021/03/27 00:35:33;;;;;;;2.20;2.00;;;7.50;92.20;;;;;;5032620;28;20025;-65
2021/03/27 00:38:03;;;;;;;3.25;1.85;;;7.50;92.20;;;;;;5032226;28;20416;-65
2021/03/27 00:40:33;;;;;;;3.00;2.25;;;7.50;92.30;;;;;;5031989;28;20032;-65
2021/03/27 00:43:04;;;;;;;4.28;3.88;;;7.40;92.30;;;;;;5032200;28;20540;-65
2021/03/27 00:45:39;;;;;;;1.88;1.40;;;7.40;92.40;;;;;;5032556;28;20033;-66
2021/03/27 00:48:09;;;;;;;2.85;1.60;;;7.50;92.40;;;;;;5031508;28;20508;-65
2021/03/27 00:50:48;;;;;;;1.40;1.30;;;7.40;92.40;;;;;;5032671;28;20029;-65
2021/03/27 00:53:19;;;;;;;1.20;1.10;;;7.40;92.50;;;;;;5032627;28;20057;-65
2021/03/27 00:55:51;;;;;;;;;;;7.50;92.60;;;;;;5032314;28;20021;-66
2021/03/27 00:58:29;;;;;;;2.28;1.80;;;7.50;92.60;;;;;;5032245;28;19940;-66
2021/03/27 01:01:00;;;;;;;1.65;1.40;;;7.60;92.60;;;;;;5031553;28;20571;-64
2021/03/27 01:03:37;;;;;;;2.87;1.10;;;7.60;92.60;;;;;;5036323;28;20024;-66
2021/03/27 01:06:06;;;;;;;1.58;1.10;;;7.60;92.50;;;;;;5035808;28;20788;-65
2021/03/27 01:08:33;;;;;;;1.83;1.65;;;7.60;92.50;;;;;;5035296;28;20041;-65
2021/03/27 01:11:02;;;;;;;2.88;1.30;;;7.70;92.60;;;;;;5035699;28;20073;-65
2021/03/27 01:13:46;;;;;;;2.47;1.33;;;7.70;92.60;;;;;;5035992;28;20499;-65
2021/03/27 01:16:19;;;;;;;4.50;1.92;;;7.70;92.60;;;;;;5035432;28;20029;-65
2021/03/27 01:18:50;;;;;;;3.92;1.85;;;7.70;92.60;;;;;;5036042;28;20018;-65
2021/03/27 01:21:26;;;;;;;4.07;2.60;;;7.70;92.50;;;;;;5035874;28;20037;-65
2021/03/27 01:23:57;;;;;;;4.43;3.10;;;7.70;92.70;;;;;;5034886;28;20017;-63
2021/03/27 01:26:26;;;;;;;5.72;3.25;;;7.70;92.80;;;;;;5035778;28;20044;-63
2021/03/27 01:29:02;;;;;;;4.38;3.97;;;7.70;92.80;;;;;;5033410;28;20101;-63
2021/03/27 01:31:50;;;;;;;4.53;3.55;;;7.70;92.80;;;;;;5035798;28;20031;-63
2021/03/27 01:34:21;;;;;;;5.43;4.05;;;7.60;92.80;;;;;;5035803;28;20116;-64
2021/03/27 01:37:13;;;;;;;5.25;4.15;;;7.70;92.90;;;;;;5034828;28;20029;-64
2021/03/27 01:39:59;;;;;;;8.17;5.07;;;7.70;92.90;;;;;;5035596;28;20021;-64
2021/03/27 01:42:46;;;;;;;5.47;4.55;;;7.70;92.80;;;;;;5035387;28;20025;-65
2021/03/27 01:45:20;;;;;;;6.50;4.65;;;7.70;92.80;;;;;;5035433;28;20029;-65
2021/03/27 01:47:53;;;;;;;7.65;5.93;;;7.60;92.80;;;;;;5035228;28;20105;-63
2021/03/27 01:50:43;;;;;;;8.35;5.30;;;7.60;93.00;;;;;;5034886;28;20028;-64
2021/03/27 01:53:33;;;;;;;7.28;5.50;;;7.70;93.10;;;;;;5035037;28;20084;-65
2021/03/27 01:56:14;;;;;;;11.02;6.28;;;7.70;93.00;;;;;;5035180;28;20021;-65
2021/03/27 01:59:15;;;;;;;9.20;6.28;;;7.70;93.00;;;;;;5034414;28;20049;-66
2021/03/27 02:01:56;;;;;;;10.25;7.45;;;7.60;93.00;;;;;;5027810;28;20038;-65
2021/03/27 02:04:28;;;;;;;8.63;7.50;;;7.60;93.00;;;;;;5034502;28;20068;-66
2021/03/27 02:07:05;;;;;;;12.73;8.65;;;7.60;93.00;;;;;;5034770;28;20029;-65
2021/03/27 02:09:38;;;;;;;10.68;8.18;;;7.60;93.00;;;;;;5034973;28;20026;-65
2021/03/27 02:12:15;;;;;;;11.10;8.40;;;7.60;93.00;;;;;;5032713;28;20029;-65
2021/03/27 02:14:44;;;;;;;14.15;9.48;;;7.60;93.40;;;;;;5034350;28;20032;-65
2021/03/27 02:17:23;;;;;;;14.50;9.20;;;7.60;93.10;;;;;;5034583;28;20424;-65
2021/03/27 02:20:14;;;;;;;12.45;9.18;;;7.50;93.00;;;;;;5033836;28;20087;-64
2021/03/27 02:23:00;;;;;;;11.05;8.70;;;7.50;93.10;;;;;;5035015;28;20056;-64
2021/03/27 02:25:50;;;;;;;24.55;20.30;;;7.50;93.10;;;;;;5032765;28;20508;-65
2021/03/27 02:28:35;;;;;;;10.82;8.52;;;7.50;93.10;;;;;;5034625;28;20151;-64
2021/03/27 02:31:18;;;;;;;14.38;9.07;;;7.50;93.00;;;;;;5034314;28;20029;-64
2021/03/27 02:34:06;;;;;;;12.57;9.25;;;7.40;92.90;;;;;;5033763;28;20026;-64
2021/03/27 02:37:09;;;;;;;10.05;6.90;;;7.40;92.90;;;;;;5034567;28;20091;-65
2021/03/27 02:39:44;;;;;;;14.52;10.73;;;7.30;92.90;;;;;;5033687;28;20030;-65
2021/03/27 02:42:49;;;;;;;10.73;6.65;;;7.10;92.70;;;;;;5034026;28;20026;-65
2021/03/27 02:45:19;;;;;;;9.00;7.07;;;6.90;93.00;;;;;;5034261;28;20112;-64
2021/03/27 02:48:03;;;;;;;16.13;10.00;;;6.70;93.20;;;;;;5032311;28;20049;-64
2021/03/27 02:50:43;;;;;;;19.42;8.35;;;6.70;93.40;;;;;;5034305;28;20462;-64
2021/03/27 02:53:20;;;;;;;11.82;8.27;;;6.60;93.60;;;;;;5033306;28;20034;-65
2021/03/27 02:56:13;;;;;;;11.90;8.48;;;6.70;93.80;;;;;;5033772;28;20030;-65
2021/03/27 02:59:06;;;;;;;10.40;8.07;;;6.70;93.80;;;;;;5033917;28;20409;-64
2021/03/27 03:01:44;;;;;;;13.02;8.23;;;6.80;93.90;;;;;;5033394;28;20033;-65
2021/03/27 03:04:38;;;;;;;10.25;7.93;;;6.90;93.90;;;;;;5032417;28;20037;-65
2021/03/27 03:07:15;;;;;;;14.20;9.13;;;7.00;93.80;;;;;;5024258;28;20555;-65
2021/03/27 03:10:00;;;;;;;15.73;11.77;;;7.10;93.70;;;;;;5032702;28;20416;-65
2021/03/27 03:12:37;;;;;;;10.65;8.32;;;7.20;93.70;;;;;;5033835;28;20055;-65
2021/03/27 03:15:18;;;;;;;10.52;7.07;;;7.20;93.70;;;;;;5032783;28;20538;-65
2021/03/27 03:18:11;;;;;;;13.73;8.45;;;7.10;93.60;;;;;;5033688;28;20033;-66
2021/03/27 03:20:48;;;;;;;10.63;7.78;;;7.10;93.70;;;;;;5017919;28;20061;-66
2021/03/27 03:23:29;;;;;;;11.88;8.48;;;7.00;93.60;;;;;;5033063;28;20029;-64
2021/03/27 03:26:21;;;;;;;12.13;7.63;;;7.00;93.80;;;;;;5032682;28;20083;-64
2021/03/27 03:28:51;;;;;;;11.95;7.63;;;6.90;93.80;;;;;;5032548;28;20018;-65
2021/03/27 03:31:36;;;;;;;13.18;7.35;;;7.00;94.00;;;;;;5033543;28;20026;-64
2021/03/27 03:34:14;;;;;;;13.10;7.68;;;7.10;93.90;;;;;;5033197;28;20018;-66
2021/03/27 03:37:10;;;;;;;14.75;9.32;;;7.10;93.90;;;;;;5032847;28;20025;-66
2021/03/27 03:40:07;;;;;;;12.25;7.63;;;7.20;93.80;;;;;;5033400;28;20032;-65
2021/03/27 03:42:53;;;;;;;12.02;7.10;;;7.30;93.80;;;;;;5032938;28;20092;-65
2021/03/27 03:45:50;;;;;;;12.30;8.20;;;7.30;93.60;;;;;;5033216;28;20044;-64
2021/03/27 03:48:43;;;;;;;14.60;8.57;;;7.40;93.50;;;;;;5033246;28;20465;-65
2021/03/27 03:51:21;;;;;;;12.25;7.60;;;7.40;93.40;;;;;;5032182;28;20076;-65
2021/03/27 03:54:16;;;;;;;15.40;8.48;;;7.40;93.40;;;;;;5032846;28;20083;-63
2021/03/27 03:57:17;;;;;;;15.48;9.68;;;7.40;93.40;;;;;;5032660;28;20029;-65
2021/03/27 04:00:07;;;;;;;14.35;9.60;;;7.40;93.50;;;;;;5033123;28;20033;-64
2021/03/27 04:02:45;;;;;;;17.48;9.90;;;7.40;93.50;;;;;;5033292;28;20507;-65
2021/03/27 04:05:31;;;;;;;18.48;10.30;;;7.40;93.50;;;;;;5032008;28;20405;-64
2021/03/27 04:08:12;;;;;;;14.10;9.00;;;7.40;93.50;;;;;;5032628;28;20021;-64
2021/03/27 04:10:41;;;;;;;11.70;8.85;;;7.40;93.40;;;;;;5032310;28;20030;-64
2021/03/27 04:13:29;;;;;;;16.00;8.88;;;7.40;93.40;;;;;;5032787;28;20171;-65
2021/03/27 04:16:04;;;;;;;13.30;9.05;;;7.40;93.30;;;;;;5032477;28;20434;-65
2021/03/27 04:18:42;;;;;;;18.48;9.30;;;7.30;93.50;;;;;;5032047;28;20060;-65
2021/03/27 04:21:31;;;;;;;14.70;8.25;;;7.40;93.30;;;;;;5032462;28;20025;-65
2021/03/27 04:24:06;;;;;;;18.85;9.88;;;7.40;93.30;;;;;;5032425;28;20040;-65
2021/03/27 04:26:50;;;;;;;19.10;11.15;;;7.40;93.30;;;;;;5032038;28;20037;-65
2021/03/27 04:29:46;;;;;;;11.85;8.38;;;7.40;93.30;;;;;;5032590;28;20029;-65
2021/03/27 04:32:24;;;;;;;15.82;8.57;;;7.30;93.10;;;;;;5032110;28;20029;-65
2021/03/27 04:35:03;;;;;;;16.92;8.52;;;7.30;93.10;;;;;;5032262;28;20033;-65
2021/03/27 04:37:46;;;;;;;17.42;8.30;;;7.30;93.10;;;;;;5034111;28;20040;-65
2021/03/27 04:40:25;;;;;;;16.35;8.13;;;7.20;93.10;;;;;;5036062;28;20045;-64
2021/03/27 04:42:56;;;;;;;17.90;8.10;;;7.20;93.20;;;;;;5036318;28;20052;-65
2021/03/27 04:45:26;;;;;;;14.77;8.05;;;7.10;93.30;;;;;;5036608;28;20021;-66
2021/03/27 04:48:01;;;;;;;14.48;7.80;;;7.10;93.40;;;;;;5035575;28;20138;-65
2021/03/27 04:50:50;;;;;;;17.40;7.10;;;7.10;93.40;;;;;;5036460;28;20021;-65
2021/03/27 04:53:38;;;;;;;18.80;7.70;;;7.10;93.40;;;;;;5035684;28;20535;-65
2021/03/27 04:56:30;;;;;;;13.82;6.70;;;7.10;93.40;;;;;;5036223;28;20025;-65
2021/03/27 04:59:07;;;;;;;12.13;7.47;;;7.10;93.30;;;;;;5035909;28;20111;-65
2021/03/27 05:01:49;;;;;;;16.17;6.40;;;7.20;93.20;;;;;;5034438;28;20025;-65
2021/03/27 05:04:34;;;;;;;10.00;6.35;;;7.10;93.20;;;;;;5036453;28;20021;-65
2021/03/27 05:07:12;;;;;;;15.27;6.18;;;7.10;93.10;;;;;;5035491;28;20116;-65
2021/03/27 05:10:08;;;;;;;16.75;6.65;;;7.10;93.10;;;;;;5036180;28;20036;-65
2021/03/27 05:12:55;;;;;;;14.00;5.65;;;7.10;93.20;;;;;;5036280;28;20022;-66
2021/03/27 05:15:32;;;;;;;13.02;5.82;;;7.20;93.10;;;;;;5034341;28;20079;-65
2021/03/27 05:18:28;;;;;;;14.48;5.97;;;7.20;93.00;;;;;;5035940;28;20040;-65
2021/03/27 05:21:01;;;;;;;14.45;5.35;;;7.30;92.90;;;;;;5035204;28;20462;-65
2021/03/27 05:23:48;;;;;;;26.13;11.27;;;7.30;92.70;;;;;;5035898;28;20021;-65
2021/03/27 05:26:37;;;;;;;16.85;5.50;;;7.30;92.70;;;;;;5036023;28;20029;-65
2021/03/27 05:29:22;;;;;;;11.90;4.85;;;7.30;92.70;;;;;;5034892;28;20025;-65
2021/03/27 05:32:07;;;;;;;56.75;33.65;;;7.30;92.80;;;;;;5035721;28;20068;-64
2021/03/27 05:34:39;;;;;;;11.95;4.22;;;7.30;92.90;;;;;;5035937;28;20485;-65
2021/03/27 05:37:42;;;;;;;10.57;3.55;;;7.30;92.80;;;;;;5034823;28;20025;-64
2021/03/27 05:40:53;;;;;;;12.82;5.63;;;7.20;92.80;;;;;;5035384;28;20044;-65
2021/03/27 05:43:57;;;;;;;7.53;3.25;;;7.00;92.80;;;;;;5035150;28;20406;-64
2021/03/27 05:47:00;;;;;;;11.15;3.53;;;7.00;92.60;;;;;;5035556;28;20038;-66
2021/03/27 05:49:59;;;;;;;10.18;3.20;;;6.80;92.60;;;;;;5033901;28;20033;-67
2021/03/27 05:52:39;;;;;;;19.63;11.45;;;6.80;92.70;;;;;;5035976;28;20029;-64
2021/03/27 05:55:38;;;;;;;12.38;3.25;;;6.70;92.80;;;;;;5035176;28;20030;-65
2021/03/27 05:58:41;;;;;;;8.68;2.92;;;6.70;92.90;;;;;;5034192;28;20145;-64
2021/03/27 06:01:31;;;;;;;9.15;2.88;;;6.60;92.90;;;;;;5034947;28;20420;-65
2021/03/27 06:04:40;;;;;;;7.60;2.65;;;6.60;93.00;;;;;;5034500;28;20026;-63
2021/03/27 06:07:20;;;;;;;10.13;3.10;;;6.60;93.10;;;;;;5024062;28;20739;-64
2021/03/27 06:10:07;;;;;;;9.63;3.22;;;6.70;93.20;;;;;;5034892;28;20071;-63
2021/03/27 06:13:10;;;;;;;19.00;10.93;;;6.80;93.30;;;;;;5035102;28;20470;-64
2021/03/27 06:16:13;;;;;;;13.27;3.70;;;6.80;93.10;;;;;;5034890;28;20036;-65
2021/03/27 06:19:05;;;;;;;14.68;3.35;;;6.90;93.10;;;;;;5032916;28;20034;-64
2021/03/27 06:21:49;;;;;;;;;;;7.00;93.10;;;;;;5035479;28;20524;-65
2021/03/27 06:24:48;;;;;;;9.50;2.42;;;7.00;93.10;;;;;;5032951;28;19912;-65
2021/03/27 06:27:32;;;;;;;13.18;2.85;;;6.90;92.40;;;;;;5034698;28;20033;-65
2021/03/27 06:30:15;;;;;;;15.45;7.03;;;6.90;92.20;;;;;;5034477;28;20025;-63
2021/03/27 06:33:19;;;;;;;9.82;2.30;;;6.80;91.60;;;;;;5034176;28;20025;-66
2021/03/27 06:35:58;;;;;;;13.98;2.90;;;6.70;91.60;;;;;;5018862;28;20041;-65
2021/03/27 06:39:00;;;;;;;9.65;2.47;;;6.70;91.50;;;;;;5032637;28;20025;-65
2021/03/27 06:41:43;;;;;;;7.93;2.40;;;6.60;91.40;;;;;;5033349;28;20032;-66
2021/03/27 06:44:11;;;;;;;12.10;2.70;;;6.50;91.50;;;;;;5033003;28;20025;-66
2021/03/27 06:47:12;;;;;;;9.30;3.03;;;6.40;91.50;;;;;;5033686;28;20033;-66
2021/03/27 06:50:15;;;;;;;11.38;2.83;;;6.30;91.90;;;;;;5034345;28;20121;-66
2021/03/27 06:53:05;;;;;;;7.85;2.00;;;6.20;91.90;;;;;;5033705;28;20029;-66
2021/03/27 06:55:51;;;;;;;7.45;2.45;;;6.10;92.00;;;;;;5034336;28;20072;-66
2021/03/27 06:58:29;;;;;;;11.27;2.55;;;6.10;92.30;;;;;;5034097;28;20054;-65
2021/03/27 07:01:32;;;;;;;8.75;2.42;;;6.00;92.40;;;;;;5033132;28;20022;-66
2021/03/27 07:04:25;;;;;;;8.88;2.60;;;6.00;92.50;;;;;;5033812;28;20021;-66
2021/03/27 07:07:28;;;;;;;6.25;2.22;;;6.00;92.70;;;;;;5033083;28;20030;-64
2021/03/27 07:10:34;;;;;;;9.40;2.70;;;6.00;92.40;;;;;;5033543;28;20063;-64
2021/03/27 07:13:25;;;;;;;10.23;2.50;;;5.90;92.40;;;;;;5033725;28;20477;-65
2021/03/27 07:16:04;;;;;;;5.15;1.95;;;5.90;92.40;;;;;;5033695;28;20029;-65
2021/03/27 07:18:38;;;;;;;5.57;2.35;;;5.90;92.50;;;;;;5033703;28;20033;-64
2021/03/27 07:21:26;;;;;;;8.02;4.47;;;5.90;92.50;;;;;;5032784;28;20045;-65
2021/03/27 07:24:01;;;;;;;8.48;2.75;;;5.90;92.50;;;;;;5033540;28;20028;-64
2021/03/27 07:26:48;;;;;;;6.75;3.15;;;5.90;92.50;;;;;;5033635;28;20034;-65
2021/03/27 07:29:32;;;;;;;8.57;3.47;;;5.90;92.60;;;;;;5021859;28;20486;-65
2021/03/27 07:32:27;;;;;;;10.82;2.88;;;6.00;92.70;;;;;;5052099;28;20108;-63
2021/03/27 07:35:36;;;;;;;10.07;2.50;;;6.10;92.70;;;;;;5041442;28;20025;-63
2021/03/27 07:38:34;;;;;;;8.98;2.72;;;6.40;92.50;;;;;;5018940;28;20042;-64
2021/03/27 07:41:16;;;;;;;8.13;2.20;;;6.60;92.50;;;;;;5033024;28;20025;-64
2021/03/27 07:43:59;;;;;;;8.77;2.47;;;6.80;92.20;;;;;;5032694;28;20022;-64
2021/03/27 07:46:27;;;;;;;7.65;2.15;;;7.00;91.80;;;;;;5033095;28;20107;-64
2021/03/27 07:49:20;;;;;;;7.10;2.35;;;7.20;91.60;;;;;;5032414;28;20017;-64
2021/03/27 07:52:28;;;;;;;11.82;2.70;;;7.30;91.30;;;;;;5032967;28;20029;-65
2021/03/27 07:55:00;;;;;;;13.65;3.47;;;7.40;91.00;;;;;;5028211;28;20079;-65
2021/03/27 07:57:44;;;;;;;10.98;3.38;;;7.40;90.90;;;;;;5032235;28;20523;-64
2021/03/27 08:00:30;;;;;;;11.90;3.45;;;7.50;90.90;;;;;;5032546;28;20069;-64
2021/03/27 08:03:50;;;;;;;10.90;3.17;;;7.70;90.90;;;;;;5032143;28;20026;-64
2021/03/27 08:06:44;;;;;;;13.15;2.85;;;7.90;90.40;;;;;;4991626;28;20040;-64
2021/03/27 08:09:37;;;;;;;11.52;2.58;;;7.90;90.20;;;;;;5032536;28;20032;-64
2021/03/27 08:12:17;;;;;;;13.00;4.10;;;8.00;90.00;;;;;;5032328;28;20033;-63
2021/03/27 08:15:11;;;;;;;9.40;3.05;;;8.00;89.50;;;;;;5011806;28;20033;-65
2021/03/27 08:17:50;;;;;;;16.42;2.95;;;8.00;89.30;;;;;;5012380;28;20022;-65
2021/03/27 08:20:44;;;;;;;10.88;2.92;;;8.00;88.80;;;;;;5013262;28;20084;-64
2021/03/27 08:23:37;;;;;;;13.23;3.05;;;7.90;88.70;;;;;;5020183;28;20026;-64
2021/03/27 08:26:05;;;;;;;9.85;4.43;;;7.90;88.80;;;;;;5030598;28;20456;-64
2021/03/27 08:28:57;;;;;;;10.65;2.60;;;7.90;89.20;;;;;;5032596;28;20025;-63
2021/03/27 08:31:40;;;;;;;13.25;3.03;;;8.00;89.10;;;;;;5031945;28;20022;-64
2021/03/27 08:34:40;;;;;;;12.90;2.83;;;8.00;89.40;;;;;;5032181;28;20037;-63
2021/03/27 08:37:12;;;;;;;13.90;2.97;;;8.10;89.60;;;;;;5032505;28;20060;-64
2021/03/27 08:40:00;;;;;;;11.48;2.63;;;8.20;89.60;;;;;;5032064;28;20091;-65
2021/03/27 08:42:26;;;;;;;11.35;2.53;;;8.10;88.30;;;;;;5024529;28;20563;-64
2021/03/27 08:45:12;;;;;;;10.55;2.42;;;8.00;87.60;;;;;;5030240;28;20025;-64
2021/03/27 08:48:06;;;;;;;9.70;2.45;;;7.90;86.70;;;;;;5032475;28;20045;-65
2021/03/27 08:50:59;;;;;;;16.00;3.05;;;7.70;86.00;;;;;;5030971;28;20025;-64
2021/03/27 08:53:53;;;;;;;11.82;2.45;;;7.60;85.90;;;;;;5031845;28;20036;-66
2021/03/27 08:56:30;;;;;;;8.65;2.17;;;7.70;86.30;;;;;;5030170;28;20036;-65
2021/03/27 08:59:44;;;;;;;11.38;2.33;;;8.00;86.20;;;;;;5020427;28;20089;-64
2021/03/27 09:02:38;;;;;;;9.73;2.67;;;8.20;84.30;;;;;;5032757;28;20481;-64
2021/03/27 09:05:22;;;;;;;11.50;1.98;;;8.20;83.60;;;;;;5031443;28;20022;-64
2021/03/27 09:08:03;;;;;;;8.57;2.22;;;8.00;83.80;;;;;;5031972;28;20030;-65
2021/03/27 09:10:59;;;;;;;10.38;2.40;;;7.90;85.20;;;;;;5029367;28;20044;-63
2021/03/27 09:13:37;;;;;;;10.93;2.17;;;7.80;86.60;;;;;;5023139;28;20389;-64
2021/03/27 09:16:40;;;;;;;9.38;2.17;;;7.60;85.80;;;;;;5012220;28;20042;-67
2021/03/27 09:19:24;;;;;;;9.30;2.55;;;7.40;87.40;;;;;;5011579;28;20096;-67
2021/03/27 09:22:19;;;;;;;76.40;10.45;;;7.40;88.20;;;;;;5012422;28;20061;-63
2021/03/27 09:24:59;;;;;;;10.05;2.20;;;7.30;89.50;;;;;;5022671;28;20148;-68
2021/03/27 09:28:07;;;;;;;8.00;2.45;;;7.30;89.20;;;;;;5035159;28;20037;-66
2021/03/27 09:30:53;;;;;;;10.20;2.25;;;7.30;89.40;;;;;;5035665;28;20040;-65
2021/03/27 09:33:28;;;;;;;15.90;6.57;;;7.40;90.20;;;;;;5035439;28;20022;-66
2021/03/27 09:36:22;;;;;;;8.77;3.13;;;7.70;90.20;;;;;;5035510;28;20030;-64
2021/03/27 09:39:15;;;;;;;9.45;2.60;;;8.10;88.90;;;;;;5017194;28;20521;-63
2021/03/27 09:41:57;;;;;;;12.48;3.10;;;8.20;87.60;;;;;;5015829;28;20057;-64
2021/03/27 09:45:08;;;;;;;9.68;3.03;;;8.40;88.30;;;;;;5015569;28;20053;-63
2021/03/27 09:48:03;;;;;;;13.65;4.50;;;8.60;86.60;;;;;;5014870;28;20030;-64
2021/03/27 09:50:57;;;;;;;12.57;2.70;;;8.80;84.90;;;;;;5015393;28;20029;-66
2021/03/27 09:53:57;;;;;;;10.15;3.10;;;9.00;85.10;;;;;;5003889;28;20073;-66
2021/03/27 09:56:42;;;;;;;12.57;3.83;;;9.30;84.20;;;;;;5018332;28;20032;-63
2021/03/27 09:59:17;;;;;;;14.15;3.00;;;9.60;83.60;;;;;;5034591;28;20075;-67
2021/03/27 10:02:20;;;;;;;19.80;5.63;;;9.60;82.60;;;;;;5032862;28;20032;-64
2021/03/27 10:04:58;;;;;;;14.70;5.00;;;9.30;82.60;;;;;;5026972;28;20037;-66
2021/03/27 10:07:26;;;;;;;18.05;6.78;;;9.10;81.90;;;;;;5033097;28;20087;-65
2021/03/27 10:10:02;;;;;;;7.40;2.45;;;9.00;79.80;;;;;;5053600;28;20032;-66
2021/03/27 10:12:46;;;;;;;6.22;1.92;;;8.90;79.50;;;;;;5053625;28;20211;-67
2021/03/27 10:15:39;;;;;;;10.57;2.70;;;8.80;79.60;;;;;;5054228;28;20025;-67
2021/03/27 10:18:21;;;;;;;10.48;2.25;;;8.80;79.00;;;;;;5048180;28;20489;-70
2021/03/27 10:20:54;;;;;;;10.38;2.38;;;9.00;78.00;;;;;;5041930;28;20022;-66
2021/03/27 10:23:30;;;;;;;8.50;2.50;;;9.30;77.40;;;;;;5033045;28;20061;-67
2021/03/27 10:26:08;;;;;;;9.35;2.55;;;9.50;75.80;;;;;;5034485;28;20038;-66
2021/03/27 10:28:43;;;;;;;10.73;3.15;;;9.60;73.70;;;;;;5033853;28;20067;-67
2021/03/27 10:31:17;;;;;;;9.98;3.28;;;9.60;72.50;;;;;;5034211;28;20029;-69
2021/03/27 10:33:55;;;;;;;9.45;3.67;;;9.40;70.70;;;;;;5034179;28;20025;-67
2021/03/27 10:36:45;;;;;;;10.80;2.33;;;9.30;67.80;;;;;;5034092;28;20104;-68
2021/03/27 10:39:35;;;;;;;8.48;2.22;;;9.20;66.30;;;;;;5034334;28;20108;-66
2021/03/27 10:42:15;;;;;;;10.05;1.83;;;9.10;67.70;;;;;;5032798;28;20025;-66
2021/03/27 10:45:05;;;;;;;7.60;2.60;;;9.10;67.10;;;;;;5024007;28;20404;-67
2021/03/27 10:48:06;;;;;;;9.00;2.05;;;9.20;65.30;;;;;;5013281;28;20482;-66
2021/03/27 10:50:57;;;;;;;10.73;2.75;;;9.30;65.10;;;;;;5013637;28;20815;-67
2021/03/27 10:53:37;;;;;;;6.82;2.08;;;9.40;65.70;;;;;;5018179;28;20038;-63
2021/03/27 10:56:24;;;;;;;7.75;2.00;;;9.50;65.40;;;;;;5033992;28;20034;-63
2021/03/27 10:59:16;;;;;;;6.15;2.22;;;9.70;64.40;;;;;;5030896;28;20037;-63
2021/03/27 11:01:45;;;;;;;7.78;2.00;;;9.90;64.20;;;;;;5034001;28;20039;-64
2021/03/27 11:04:57;;;;;;;17.00;5.93;;;10.10;62.80;;;;;;5033393;28;20057;-64
2021/03/27 11:08:00;;;;;;;4.60;2.15;;;10.30;61.60;;;;;;5029603;28;20049;-62
2021/03/27 11:10:48;;;;;;;7.32;1.92;;;10.40;60.70;;;;;;5034044;28;20068;-63
2021/03/27 11:13:40;;;;;;;11.00;2.72;;;10.40;60.70;;;;;;5022560;28;20104;-67
2021/03/27 11:16:20;;;;;;;6.35;1.90;;;10.40;59.80;;;;;;5014625;28;20029;-66
2021/03/27 11:19:01;;;;;;;7.07;1.90;;;10.20;60.00;;;;;;5029262;28;20025;-65
2021/03/27 11:21:32;;;;;;;8.60;2.28;;;10.00;60.30;;;;;;5032360;28;20540;-67
2021/03/27 11:24:41;;;;;;;10.27;2.83;;;10.10;61.70;;;;;;5024036;28;20022;-64
2021/03/27 11:27:28;;;;;;;5.20;2.05;;;10.30;62.00;;;;;;5011730;28;20037;-65
2021/03/27 11:30:03;;;;;;;7.85;2.00;;;10.40;62.70;;;;;;5014374;28;20072;-63
2021/03/27 11:32:57;;;;;;;9.95;2.38;;;10.50;60.30;;;;;;5032607;28;20091;-63
2021/03/27 11:35:45;;;;;;;7.50;2.38;;;10.50;60.30;;;;;;5031611;28;20029;-63
2021/03/27 11:38:31;;;;;;;8.75;2.70;;;10.50;59.60;;;;;;5028369;28;20036;-69
2021/03/27 11:41:05;;;;;;;6.13;1.92;;;10.40;60.40;;;;;;5005126;28;20081;-63
2021/03/27 11:43:36;;;;;;;8.55;2.20;;;10.30;60.20;;;;;;4993235;28;20030;-63
2021/03/27 11:46:11;;;;;;;6.93;3.55;;;10.10;59.70;;;;;;4994429;28;20034;-63
2021/03/27 11:48:52;;;;;;;6.05;2.08;;;9.80;62.00;;;;;;4992970;28;20032;-63
2021/03/27 11:51:21;;;;;;;12.05;2.75;;;9.60;63.80;;;;;;4993199;28;20030;-62
2021/03/27 11:54:12;;;;;;;6.10;2.30;;;9.50;65.20;;;;;;4994690;28;20053;-64
2021/03/27 11:57:11;;;;;;;7.07;2.00;;;9.30;66.90;;;;;;5010959;28;20065;-62
2021/03/27 12:02:46;;;;;;;7.18;2.28;;;9.10;71.20;;;;;;4993028;28;20033;-73
2021/03/27 12:05:17;;;;;;;7.28;2.20;;;9.10;72.50;;;;;;4992833;28;20026;-66
2021/03/27 12:08:07;;;;;;;7.80;2.58;;;9.10;73.40;;;;;;5007465;28;20046;-65
2021/03/27 12:10:57;;;;;;;10.10;2.22;;;9.10;72.10;;;;;;5012438;28;20053;-67
2021/03/27 12:13:42;;;;;;;7.90;2.92;;;9.10;73.00;;;;;;5012731;28;20030;-67
2021/03/27 12:16:19;;;;;;;8.13;2.92;;;9.20;74.60;;;;;;5010738;28;20038;-67
2021/03/27 12:18:45;;;;;;;9.50;2.60;;;9.30;73.70;;;;;;5008151;28;20042;-68
2021/03/27 12:22:06;;;;;;;13.60;2.90;;;9.40;71.60;;;;;;4999778;28;20030;-67
2021/03/27 12:25:00;;;;;;;8.73;2.47;;;9.50;72.10;;;;;;4970580;28;20111;-63
2021/03/27 12:27:25;;;;;;;12.40;2.80;;;9.50;72.30;;;;;;4990904;28;20065;-65
2021/03/27 12:29:54;;;;;;;14.15;3.40;;;9.30;72.70;;;;;;4990268;28;20479;-65
2021/03/27 12:32:58;;;;;;;9.15;3.80;;;9.00;74.20;;;;;;4993920;28;20458;-66
2021/03/27 12:35:33;;;;;;;12.65;2.95;;;8.40;77.10;;;;;;4992944;28;20031;-65
2021/03/27 12:38:08;;;;;;;10.73;2.70;;;7.90;80.40;;;;;;4992466;28;20382;-66
2021/03/27 12:40:58;;;;;;;15.95;3.40;;;7.80;83.10;;;;;;4996950;28;20113;-68
2021/03/27 12:43:30;;;;;;;13.65;3.20;;;7.90;84.10;;;;;;5010261;28;20030;-69
2021/03/27 12:46:14;;;;;;;15.27;3.33;;;8.00;84.60;;;;;;5011592;28;20026;-70
2021/03/27 12:49:16;;;;;;;12.98;2.83;;;8.10;84.60;;;;;;5010412;28;20022;-67
2021/03/27 12:52:01;;;;;;;10.38;4.00;;;8.40;84.00;;;;;;4997539;28;20034;-65
2021/03/27 12:54:43;;;;;;;15.27;5.18;;;8.60;83.50;;;;;;4990633;28;20034;-69
2021/03/27 12:57:34;;;;;;;10.63;4.95;;;8.70;83.30;;;;;;4990591;28;20046;-64
2021/03/27 13:00:27;;;;;;;14.02;5.15;;;8.70;80.60;;;;;;4995620;28;20049;-67
2021/03/27 13:03:40;;;;;;;12.60;2.50;;;8.70;81.00;;;;;;4995804;28;20057;-66
2021/03/27 13:06:09;;;;;;;9.15;2.80;;;8.70;79.30;;;;;;4991375;28;20050;-68
2021/03/27 13:08:38;;;;;;;10.68;2.80;;;8.60;78.10;;;;;;5000191;28;20072;-68
2021/03/27 13:11:13;;;;;;;10.35;3.30;;;8.40;77.20;;;;;;5013001;28;20034;-65
2021/03/27 13:13:53;;;;;;;9.20;2.35;;;8.40;77.70;;;;;;5014428;28;20126;-66
2021/03/27 13:16:49;;;;;;;15.82;4.28;;;8.40;77.60;;;;;;5015050;28;20076;-63
2021/03/27 13:19:29;;;;;;;13.52;5.78;;;8.50;76.70;;;;;;5000316;28;20133;-65
2021/03/27 13:22:11;;;;;;;13.52;3.22;;;8.60;76.40;;;;;;5011834;28;20414;-64
2021/03/27 13:24:53;;;;;;;12.07;3.35;;;8.90;75.80;;;;;;5009615;28;20088;-65
2021/03/27 13:27:34;;;;;;;9.98;2.80;;;9.30;75.80;;;;;;4993384;28;20317;-68
2021/03/27 13:30:22;;;;;;;11.18;3.20;;;9.60;74.70;;;;;;4991696;28;20034;-62
2021/03/27 13:33:03;;;;;;;13.00;4.15;;;9.90;74.80;;;;;;4991309;28;20133;-63
2021/03/27 13:35:53;;;;;;;18.17;4.47;;;10.30;74.00;;;;;;4991198;28;20027;-63
2021/03/27 13:38:41;;;;;;;16.25;3.65;;;10.50;72.50;;;;;;4991841;28;20441;-61
2021/03/27 13:41:33;;;;;;;12.88;3.22;;;10.70;72.00;;;;;;4999474;28;20026;-66
2021/03/27 13:44:46;;;;;;;13.95;2.83;;;10.80;70.30;;;;;;5008842;28;20494;-63
2021/03/27 13:47:30;;;;;;;15.00;3.42;;;11.00;69.60;;;;;;4969162;28;20035;-62
2021/03/27 13:50:17;;;;;;;10.88;2.90;;;11.20;68.30;;;;;;4981362;28;20026;-63
2021/03/27 13:53:18;;;;;;;11.13;2.63;;;11.30;67.60;;;;;;4985006;28;20045;-63
2021/03/27 13:56:37;;;;;;;8.00;2.08;;;11.20;64.70;;;;;;4992468;28;20518;-62
2021/03/27 13:59:21;;;;;;;8.40;2.78;;;11.00;65.10;;;;;;4943344;29;20094;-62
2021/03/27 14:02:09;;;;;;;12.65;3.60;;;10.90;66.10;;;;;;4991341;28;20041;-63
2021/03/27 14:04:50;;;;;;;10.00;3.35;;;10.90;64.80;;;;;;4996536;28;20064;-62
2021/03/27 14:07:31;;;;;;;10.43;2.47;;;10.70;64.20;;;;;;5011139;28;20072;-62
2021/03/27 14:10:12;;;;;;;13.27;2.63;;;10.70;64.50;;;;;;5010450;28;20033;-65
2021/03/27 14:12:41;;;;;;;12.13;3.03;;;10.50;64.50;;;;;;5011807;28;20053;-64
2021/03/27 14:15:19;;;;;;;9.63;3.25;;;10.50;65.70;;;;;;5004119;28;20026;-63
2021/03/27 14:17:48;;;;;;;10.73;2.92;;;10.60;66.50;;;;;;4991845;28;20026;-64
2021/03/27 14:20:49;;;;;;;10.85;2.95;;;10.60;66.90;;;;;;4999017;28;20486;-62
2021/03/27 14:23:31;;;;;;;7.85;2.45;;;10.60;66.80;;;;;;4992823;28;20065;-62
2021/03/27 14:26:25;;;;;;;11.82;3.35;;;10.80;67.70;;;;;;5000557;28;20046;-72